Time;durP1;ratioP1;P1;durP2;ratioP2;P2;SDS_P1;SDS_P2;PMS_P1;PMS_P2;Temp;Humidity;BMP_temperature;BMP_pressure;BME280_temperature;BME280_humidity;BME280_pressure;Samples;Min_cycle;Max_cycle;Signal;HPM_P1;HPM_P2
2023/08/04 00:01:14;;;;;;;10.95;2.38;;;17.90;99.90;;;;;;5060144;28;20381;-82
2023/08/04 00:03:40;;;;;;;6.43;1.95;;;18.00;99.90;;;;;;5061029;28;20029;-82
2023/08/04 00:06:09;;;;;;;5.72;1.80;;;17.90;99.90;;;;;;5067192;28;20052;-83
2023/08/04 00:08:34;;;;;;;9.20;2.63;;;18.00;99.90;;;;;;5061419;28;20465;-83
2023/08/04 00:11:01;;;;;;;9.77;2.60;;;18.00;99.90;;;;;;5064599;28;20111;-81
2023/08/04 00:13:26;;;;;;;7.25;2.55;;;18.00;99.90;;;;;;5061891;28;20067;-83
2023/08/04 00:15:52;;;;;;;5.82;2.15;;;18.10;99.90;;;;;;5058501;28;20037;-83
2023/08/04 00:18:18;;;;;;;4.97;1.95;;;18.20;99.90;;;;;;5058876;28;20043;-83
2023/08/04 00:20:43;;;;;;;7.60;2.45;;;18.20;99.90;;;;;;5057931;28;20067;-83
2023/08/04 00:23:09;;;;;;;5.32;1.98;;;18.30;99.90;;;;;;5059999;28;20099;-84
2023/08/04 00:25:35;;;;;;;6.47;2.42;;;18.30;99.90;;;;;;5063263;28;20025;-83
2023/08/04 00:28:00;;;;;;;9.57;1.88;;;18.30;99.90;;;;;;5064413;28;19966;-83
2023/08/04 00:30:26;;;;;;;8.32;1.95;;;18.30;99.90;;;;;;5066975;28;20430;-84
2023/08/04 00:32:53;;;;;;;9.70;2.30;;;18.20;99.90;;;;;;5067364;28;20442;-83
2023/08/04 00:35:19;;;;;;;10.55;1.95;;;18.20;99.90;;;;;;5064693;28;20104;-83
2023/08/04 00:37:45;;;;;;;8.80;2.67;;;18.20;99.90;;;;;;5065607;28;20047;-83
2023/08/04 00:40:11;;;;;;;8.05;3.03;;;18.10;99.90;;;;;;5053109;28;20040;-83
2023/08/04 00:42:36;;;;;;;3.08;1.88;;;18.10;99.90;;;;;;5037317;28;20040;-82
2023/08/04 00:45:04;;;;;;;12.25;2.20;;;18.10;99.90;;;;;;5053345;28;20040;-83
2023/08/04 00:47:35;;;;;;;7.88;1.88;;;18.10;99.90;;;;;;5057919;28;20052;-82
2023/08/04 00:50:04;;;;;;;7.93;2.13;;;18.10;99.90;;;;;;5055219;28;20139;-81
2023/08/04 00:52:30;;;;;;;5.70;1.85;;;18.10;99.90;;;;;;5056095;28;20190;-82
2023/08/04 00:54:56;;;;;;;4.78;2.00;;;18.20;99.90;;;;;;5055657;28;20389;-82
2023/08/04 00:57:22;;;;;;;8.57;2.67;;;18.20;99.90;;;;;;5057346;28;20044;-82
2023/08/04 00:59:48;;;;;;;7.88;2.08;;;18.20;99.90;;;;;;5056099;28;20029;-82
2023/08/04 01:02:14;;;;;;;4.53;1.98;;;18.20;99.90;;;;;;5051288;28;20492;-82
2023/08/04 01:04:39;;;;;;;8.80;2.10;;;18.20;99.90;;;;;;5034543;28;20097;-81
2023/08/04 01:07:20;;;;;;;4.45;1.83;;;18.10;99.90;;;;;;5034710;28;20500;-81
2023/08/04 01:10:13;;;;;;;4.95;1.90;;;18.10;99.90;;;;;;5035986;28;20030;-83
2023/08/04 01:13:06;;;;;;;4.82;1.80;;;18.20;99.90;;;;;;5040426;28;20025;-83
2023/08/04 01:15:32;;;;;;;5.75;2.15;;;18.20;99.90;;;;;;5037855;28;20079;-82
2023/08/04 01:17:58;;;;;;;5.55;1.70;;;18.20;99.90;;;;;;5036930;28;20041;-83
2023/08/04 01:20:25;;;;;;;9.55;2.10;;;18.20;99.90;;;;;;5040389;28;20500;-83
2023/08/04 01:22:51;;;;;;;6.78;2.20;;;18.20;99.90;;;;;;5042579;28;20018;-83
2023/08/04 01:25:18;;;;;;;5.45;1.50;;;18.20;99.90;;;;;;5040588;28;20041;-83
2023/08/04 01:27:55;;;;;;;7.47;1.77;;;18.20;99.90;;;;;;5035472;28;20057;-82
2023/08/04 01:30:23;;;;;;;7.35;2.17;;;18.20;99.90;;;;;;5035314;28;20041;-82
2023/08/04 01:32:49;;;;;;;9.57;1.85;;;18.20;99.90;;;;;;5037067;28;20462;-83
2023/08/04 01:35:15;;;;;;;7.22;1.70;;;18.10;99.90;;;;;;5037457;28;20040;-83
2023/08/04 01:37:43;;;;;;;9.00;2.05;;;18.10;99.90;;;;;;5035512;28;20033;-82
2023/08/04 01:40:10;;;;;;;10.48;1.88;;;18.00;99.90;;;;;;5035735;28;20080;-82
2023/08/04 01:42:35;;;;;;;8.82;2.00;;;18.00;99.90;;;;;;5035956;28;20033;-83
2023/08/04 01:45:01;;;;;;;8.80;2.28;;;18.00;99.90;;;;;;5034153;28;20033;-82
2023/08/04 01:47:27;;;;;;;7.72;2.60;;;17.90;99.90;;;;;;5034941;28;20033;-81
2023/08/04 01:49:52;;;;;;;8.05;2.25;;;17.90;99.90;;;;;;5035314;28;20029;-82
2023/08/04 01:52:18;;;;;;;8.18;2.22;;;17.70;99.90;;;;;;5034957;28;20064;-81
2023/08/04 01:54:44;;;;;;;10.20;2.97;;;17.70;99.90;;;;;;5035871;28;20029;-82
2023/08/04 01:57:09;;;;;;;10.48;2.88;;;17.70;99.90;;;;;;5034415;28;20041;-82
2023/08/04 01:59:35;;;;;;;11.25;3.55;;;17.60;99.90;;;;;;5035453;28;20033;-82
2023/08/04 02:02:01;;;;;;;8.93;2.90;;;17.60;99.90;;;;;;5033685;28;20126;-82
2023/08/04 02:04:26;;;;;;;8.23;2.97;;;17.60;99.90;;;;;;5047521;28;20032;-83
2023/08/04 02:06:52;;;;;;;8.40;2.38;;;17.60;99.90;;;;;;5053349;28;20032;-82
2023/08/04 02:09:17;;;;;;;11.00;2.80;;;17.60;99.90;;;;;;5054471;28;20033;-81
2023/08/04 02:11:43;;;;;;;6.28;1.80;;;17.60;99.90;;;;;;5053977;28;20039;-81
2023/08/04 02:14:09;;;;;;;5.20;1.90;;;17.60;99.90;;;;;;5054276;28;20029;-81
2023/08/04 02:16:35;;;;;;;8.80;2.45;;;17.60;99.90;;;;;;5054337;28;20380;-81
2023/08/04 02:19:03;;;;;;;9.38;3.03;;;17.70;99.90;;;;;;5053403;28;20025;-82
2023/08/04 02:21:29;;;;;;;8.55;2.30;;;17.60;99.90;;;;;;5053802;28;20052;-81
2023/08/04 02:23:55;;;;;;;12.02;3.10;;;17.60;99.90;;;;;;5054540;28;20048;-82
2023/08/04 02:26:21;;;;;;;10.30;3.22;;;17.60;99.90;;;;;;5054027;28;20060;-83
2023/08/04 02:28:49;;;;;;;10.05;3.28;;;17.50;99.90;;;;;;5053895;28;20069;-82
2023/08/04 02:31:19;;;;;;;10.88;3.33;;;17.50;99.90;;;;;;5053911;28;20029;-81
2023/08/04 02:33:44;;;;;;;10.07;3.15;;;17.50;99.90;;;;;;5053933;28;20032;-81
2023/08/04 02:36:11;;;;;;;10.75;3.05;;;17.40;99.90;;;;;;5053630;28;20175;-82
2023/08/04 02:38:37;;;;;;;8.50;2.72;;;17.30;99.90;;;;;;5052640;28;20033;-82
2023/08/04 02:41:03;;;;;;;8.98;2.38;;;17.30;99.90;;;;;;5053467;28;20029;-81
2023/08/04 02:43:29;;;;;;;8.43;2.72;;;17.30;99.90;;;;;;5054053;28;20030;-82
2023/08/04 02:45:55;;;;;;;8.27;2.15;;;17.40;99.90;;;;;;5052660;28;20025;-82
2023/08/04 02:48:20;;;;;;;5.25;2.13;;;17.40;99.90;;;;;;5054258;28;20484;-82
2023/08/04 02:50:46;;;;;;;9.45;2.55;;;17.40;99.90;;;;;;5054689;28;20117;-83
2023/08/04 02:53:13;;;;;;;5.43;2.00;;;17.50;99.90;;;;;;5054229;28;20059;-83
2023/08/04 02:55:39;;;;;;;14.65;3.13;;;17.50;99.90;;;;;;5054787;28;20031;-83
2023/08/04 02:58:05;;;;;;;11.57;2.60;;;17.50;99.90;;;;;;5066038;28;20049;-84
2023/08/04 03:00:31;;;;;;;10.52;2.80;;;17.50;99.90;;;;;;5063326;28;20512;-84
2023/08/04 03:02:57;;;;;;;12.13;2.67;;;17.40;99.90;;;;;;5058303;28;20033;-83
2023/08/04 03:05:23;;;;;;;7.32;2.45;;;17.40;99.90;;;;;;5053636;28;20054;-82
2023/08/04 03:07:48;;;;;;;10.23;3.08;;;17.50;99.90;;;;;;5052074;28;20524;-82
2023/08/04 03:10:14;;;;;;;6.57;2.28;;;17.40;99.90;;;;;;5053206;28;20029;-81
2023/08/04 03:12:39;;;;;;;6.80;2.63;;;17.40;99.90;;;;;;5053076;28;20028;-82
2023/08/04 03:15:06;;;;;;;6.55;3.15;;;17.50;99.90;;;;;;5053187;28;20082;-82
2023/08/04 03:17:31;;;;;;;11.27;3.50;;;17.50;99.90;;;;;;5051926;28;20477;-81
2023/08/04 03:19:57;;;;;;;9.27;3.60;;;17.40;99.90;;;;;;5053348;28;20029;-81
2023/08/04 03:22:22;;;;;;;13.85;4.05;;;17.40;99.90;;;;;;5053231;28;20449;-81
2023/08/04 03:24:48;;;;;;;12.35;4.38;;;17.40;99.90;;;;;;5052561;28;20096;-81
2023/08/04 03:27:14;;;;;;;15.63;3.97;;;17.30;99.90;;;;;;5051603;28;20041;-81
2023/08/04 03:29:39;;;;;;;13.85;3.75;;;17.30;99.90;;;;;;5052503;28;20342;-81
2023/08/04 03:32:05;;;;;;;6.53;2.95;;;17.30;99.90;;;;;;5051300;28;20389;-82
2023/08/04 03:34:31;;;;;;;12.77;4.30;;;17.30;99.90;;;;;;5052540;28;20037;-81
2023/08/04 03:36:57;;;;;;;14.85;4.13;;;17.30;99.90;;;;;;5052992;28;20029;-82
2023/08/04 03:39:22;;;;;;;14.88;4.95;;;17.40;99.90;;;;;;5051707;28;20434;-82
2023/08/04 03:41:48;;;;;;;12.43;4.68;;;17.30;99.90;;;;;;5052441;28;20033;-83
2023/08/04 03:44:13;;;;;;;13.45;5.13;;;17.30;99.90;;;;;;5051625;28;20033;-82
2023/08/04 03:46:39;;;;;;;14.13;4.40;;;17.20;99.90;;;;;;5052904;28;20036;-83
2023/08/04 03:49:05;;;;;;;8.65;3.58;;;17.20;99.90;;;;;;5053433;28;20040;-82
2023/08/04 03:51:30;;;;;;;10.55;4.82;;;17.20;99.90;;;;;;5051637;28;20037;-81
2023/08/04 03:53:56;;;;;;;8.43;3.83;;;17.20;99.90;;;;;;5054003;28;20615;-83
2023/08/04 03:56:21;;;;;;;9.73;4.10;;;17.20;99.90;;;;;;5053584;28;20029;-83
2023/08/04 03:58:47;;;;;;;9.93;4.97;;;17.20;99.90;;;;;;5052766;28;20033;-83
2023/08/04 04:01:13;;;;;;;8.00;3.45;;;17.30;99.90;;;;;;5054455;28;20040;-84
2023/08/04 04:03:38;;;;;;;9.18;3.22;;;17.30;99.90;;;;;;5059384;28;20037;-83
2023/08/04 04:06:04;;;;;;;16.10;5.00;;;17.20;99.90;;;;;;5061483;28;20169;-83
2023/08/04 04:08:30;;;;;;;11.38;4.40;;;17.30;99.90;;;;;;5063700;28;20032;-83
2023/08/04 04:10:55;;;;;;;12.55;4.22;;;17.30;99.90;;;;;;5062946;28;20028;-85
2023/08/04 04:13:22;;;;;;;7.78;3.13;;;17.30;99.90;;;;;;5059523;28;20453;-84
2023/08/04 04:15:48;;;;;;;11.60;4.20;;;17.30;99.90;;;;;;5060488;28;20136;-84
2023/08/04 04:18:13;;;;;;;8.23;3.97;;;17.30;99.90;;;;;;5059106;28;20033;-84
2023/08/04 04:20:39;;;;;;;14.13;4.22;;;17.40;99.90;;;;;;5042418;28;20034;-84
2023/08/04 04:23:05;;;;;;;11.82;3.67;;;17.40;99.90;;;;;;5038280;28;20036;-83
2023/08/04 04:25:30;;;;;;;12.30;4.25;;;17.40;99.90;;;;;;5038495;28;20378;-84
2023/08/04 04:27:56;;;;;;;8.95;3.92;;;17.40;99.90;;;;;;5038486;28;20053;-84
2023/08/04 04:30:22;;;;;;;9.88;4.00;;;17.40;99.90;;;;;;5025928;28;20042;-84
2023/08/04 04:32:47;;;;;;;12.48;4.53;;;17.40;99.90;;;;;;5043237;28;20053;-84
2023/08/04 04:35:13;;;;;;;7.30;2.95;;;17.40;99.90;;;;;;5042828;28;20517;-83
2023/08/04 04:37:39;;;;;;;8.80;3.42;;;17.50;99.90;;;;;;5040632;28;20030;-83
2023/08/04 04:40:05;;;;;;;9.00;3.47;;;17.50;99.90;;;;;;5041500;28;20025;-84
2023/08/04 04:42:34;;;;;;;5.18;2.97;;;17.40;99.90;;;;;;5044761;28;20037;-83
2023/08/04 04:45:00;;;;;;;7.13;3.42;;;17.40;99.90;;;;;;5048038;28;20025;-82
2023/08/04 04:47:27;;;;;;;13.43;3.92;;;17.50;99.90;;;;;;5049448;28;20040;-83
2023/08/04 04:49:52;;;;;;;5.85;3.15;;;17.50;99.90;;;;;;5040403;28;20183;-83
2023/08/04 04:52:33;;;;;;;7.88;3.13;;;17.50;99.90;;;;;;5036932;28;20570;-83
2023/08/04 04:55:01;;;;;;;9.68;3.05;;;17.50;99.90;;;;;;5042468;28;20032;-84
2023/08/04 04:57:27;;;;;;;11.02;3.13;;;17.50;99.90;;;;;;5040780;28;20430;-83
2023/08/04 04:59:53;;;;;;;10.70;3.45;;;17.50;99.90;;;;;;5043101;28;20033;-84
2023/08/04 05:02:19;;;;;;;10.48;3.45;;;17.50;99.90;;;;;;5042115;28;20044;-84
2023/08/04 05:04:45;;;;;;;9.10;3.38;;;17.50;99.90;;;;;;5043137;28;20484;-84
2023/08/04 05:07:10;;;;;;;6.13;2.47;;;17.50;99.90;;;;;;5042251;28;20029;-84
2023/08/04 05:09:38;;;;;;;7.85;2.72;;;17.50;99.90;;;;;;5042706;28;20037;-85
2023/08/04 05:12:03;;;;;;;8.77;3.33;;;17.40;99.90;;;;;;5040634;28;20034;-84
2023/08/04 05:14:29;;;;;;;5.57;2.50;;;17.50;99.90;;;;;;5040462;28;20038;-84
2023/08/04 05:16:55;;;;;;;5.95;2.53;;;17.50;99.90;;;;;;5039805;28;20030;-84
2023/08/04 05:19:20;;;;;;;7.38;2.92;;;17.40;99.90;;;;;;5041435;28;20087;-84
2023/08/04 05:21:46;;;;;;;8.70;3.28;;;17.40;99.90;;;;;;5039047;28;20037;-84
2023/08/04 05:24:12;;;;;;;4.40;2.38;;;17.40;99.90;;;;;;5037615;28;20056;-83
2023/08/04 05:26:38;;;;;;;6.28;2.10;;;17.50;99.90;;;;;;5037170;28;20040;-84
2023/08/04 05:29:03;;;;;;;10.23;2.60;;;17.60;99.90;;;;;;5035253;28;20050;-83
2023/08/04 05:31:29;;;;;;;5.65;2.13;;;17.60;99.90;;;;;;5036283;28;20041;-84
2023/08/04 05:33:56;;;;;;;11.55;2.85;;;17.60;99.90;;;;;;5036673;28;20037;-83
2023/08/04 05:36:23;;;;;;;6.25;1.90;;;17.60;99.90;;;;;;5036974;28;20084;-83
2023/08/04 05:38:49;;;;;;;6.10;2.08;;;17.60;99.90;;;;;;5052881;28;20106;-83
2023/08/04 05:41:14;;;;;;;6.55;2.10;;;17.60;99.90;;;;;;5036212;28;20065;-83
2023/08/04 05:43:40;;;;;;;6.65;2.38;;;17.60;99.90;;;;;;5036216;28;20038;-83
2023/08/04 05:46:06;;;;;;;9.63;1.92;;;17.60;99.90;;;;;;5035741;28;20524;-83
2023/08/04 05:48:33;;;;;;;7.28;2.17;;;17.50;99.90;;;;;;5037941;28;20079;-84
2023/08/04 05:50:59;;;;;;;8.15;2.20;;;17.60;99.90;;;;;;5039048;28;20091;-84
2023/08/04 05:53:25;;;;;;;6.57;1.58;;;17.50;99.90;;;;;;5038208;28;20534;-85
2023/08/04 05:55:51;;;;;;;8.77;1.95;;;17.50;99.90;;;;;;5037527;28;20074;-85
2023/08/04 05:58:17;;;;;;;4.95;1.85;;;17.50;99.90;;;;;;5036404;28;20068;-84
2023/08/04 06:00:43;;;;;;;5.13;1.83;;;17.50;99.90;;;;;;5036280;28;20548;-84
2023/08/04 06:03:09;;;;;;;5.00;1.83;;;17.50;99.90;;;;;;5036298;28;20470;-83
2023/08/04 06:05:35;;;;;;;6.90;2.20;;;17.50;99.90;;;;;;5036079;28;20116;-83
2023/08/04 06:08:01;;;;;;;5.07;1.85;;;17.50;99.90;;;;;;5036910;28;20542;-83
2023/08/04 06:10:27;;;;;;;3.72;1.50;;;17.60;99.90;;;;;;5052898;28;20124;-83
2023/08/04 06:12:52;;;;;;;12.70;2.17;;;17.60;99.90;;;;;;5036710;28;20117;-81
2023/08/04 06:15:18;;;;;;;4.85;1.92;;;17.70;99.90;;;;;;5036541;28;20105;-81
2023/08/04 06:17:44;;;;;;;7.03;3.08;;;17.70;99.90;;;;;;5038034;28;20038;-81
2023/08/04 06:20:10;;;;;;;8.32;2.83;;;17.70;99.90;;;;;;5040177;28;20030;-81
2023/08/04 06:22:36;;;;;;;6.93;3.22;;;17.80;99.90;;;;;;5042379;28;20033;-82
2023/08/04 06:25:06;;;;;;;8.30;3.15;;;17.70;99.90;;;;;;5040198;28;20031;-82
2023/08/04 06:27:32;;;;;;;6.05;2.47;;;17.70;99.90;;;;;;5040208;28;20069;-81
2023/08/04 06:29:59;;;;;;;10.48;2.65;;;17.70;99.90;;;;;;5037427;28;20056;-82
2023/08/04 06:32:26;;;;;;;8.90;2.90;;;17.80;99.90;;;;;;5045250;28;20021;-80
2023/08/04 06:34:51;;;;;;;6.50;2.55;;;17.90;99.90;;;;;;5055506;28;20409;-81
2023/08/04 06:37:17;;;;;;;6.00;2.80;;;17.90;99.90;;;;;;5039516;28;20033;-82
2023/08/04 06:39:42;;;;;;;9.00;3.60;;;18.00;99.90;;;;;;5041676;28;20022;-81
2023/08/04 06:42:08;;;;;;;6.45;2.53;;;17.90;99.90;;;;;;5042620;28;20527;-82
2023/08/04 06:44:34;;;;;;;7.80;2.88;;;17.90;99.90;;;;;;5044365;28;20040;-81
2023/08/04 06:47:00;;;;;;;5.07;2.20;;;17.90;99.90;;;;;;5044101;28;20033;-84
2023/08/04 06:49:25;;;;;;;3.58;1.95;;;18.00;99.90;;;;;;5042869;28;20397;-82
2023/08/04 06:51:51;;;;;;;6.68;2.40;;;18.00;99.90;;;;;;5042332;28;20024;-81
2023/08/04 06:54:17;;;;;;;5.70;1.88;;;18.00;99.90;;;;;;5038250;28;20439;-81
2023/08/04 06:56:43;;;;;;;11.70;2.70;;;18.00;99.90;;;;;;5038798;28;20025;-81
2023/08/04 06:59:08;;;;;;;4.82;1.83;;;18.10;99.90;;;;;;5043144;28;20381;-81
2023/08/04 07:01:34;;;;;;;8.18;1.90;;;18.10;99.90;;;;;;5035632;28;20418;-80
2023/08/04 07:03:59;;;;;;;6.32;1.92;;;18.10;99.90;;;;;;5035452;28;20025;-80
2023/08/04 07:06:25;;;;;;;4.85;2.45;;;18.20;99.90;;;;;;5042638;28;20040;-80
2023/08/04 07:08:51;;;;;;;4.35;1.75;;;18.20;99.90;;;;;;5042194;28;20472;-81
2023/08/04 07:11:17;;;;;;;6.18;1.92;;;18.20;99.90;;;;;;5052597;28;20031;-81
2023/08/04 07:13:44;;;;;;;6.30;1.90;;;18.30;99.90;;;;;;5035562;28;20056;-79
2023/08/04 07:16:10;;;;;;;6.05;1.67;;;18.40;99.90;;;;;;5051897;28;20456;-81
2023/08/04 07:18:39;;;;;;;8.25;1.73;;;18.50;99.90;;;;;;5040862;28;20334;-80
2023/08/04 07:21:12;;;;;;;4.53;1.98;;;18.50;99.90;;;;;;5043630;28;20098;-79
2023/08/04 07:23:39;;;;;;;9.43;2.22;;;18.60;99.90;;;;;;5043461;28;20013;-71
2023/08/04 07:26:05;;;;;;;8.15;2.10;;;18.70;99.90;;;;;;5041563;28;20053;-72
2023/08/04 07:28:32;;;;;;;8.65;2.10;;;18.70;99.90;;;;;;5042540;28;20057;-72
2023/08/04 07:31:01;;;;;;;6.10;1.50;;;18.80;99.90;;;;;;5042481;28;20390;-71
2023/08/04 07:33:27;;;;;;;4.70;1.60;;;18.90;99.90;;;;;;5043608;28;20402;-72
2023/08/04 07:35:54;;;;;;;9.95;2.38;;;19.00;99.90;;;;;;5041714;28;20017;-71
2023/08/04 07:38:20;;;;;;;3.88;1.35;;;19.00;99.90;;;;;;5042901;28;20034;-71
2023/08/04 07:40:46;;;;;;;7.10;1.60;;;19.00;99.90;;;;;;5040701;28;20358;-72
2023/08/04 07:43:13;;;;;;;5.90;1.73;;;19.00;99.90;;;;;;5025362;28;20028;-81
2023/08/04 07:45:39;;;;;;;6.55;1.80;;;19.10;99.90;;;;;;5041836;28;20083;-82
2023/08/04 07:48:05;;;;;;;5.43;1.42;;;19.00;99.90;;;;;;5042943;28;20032;-81
2023/08/04 07:50:30;;;;;;;5.40;1.55;;;19.00;99.90;;;;;;5052652;28;20522;-77
2023/08/04 07:52:56;;;;;;;6.35;2.05;;;19.00;99.90;;;;;;5052925;28;20033;-81
2023/08/04 07:55:22;;;;;;;6.05;1.70;;;19.00;99.90;;;;;;5048446;28;20036;-82
2023/08/04 07:57:48;;;;;;;7.68;2.33;;;19.00;99.90;;;;;;5032597;28;20037;-81
2023/08/04 08:00:14;;;;;;;6.35;2.10;;;19.00;99.90;;;;;;5032761;28;20026;-80
2023/08/04 08:02:40;;;;;;;11.57;2.13;;;19.00;99.90;;;;;;5032937;28;20025;-80
2023/08/04 08:05:07;;;;;;;6.22;1.80;;;19.00;99.90;;;;;;5031470;28;20105;-81
2023/08/04 08:07:33;;;;;;;5.38;1.58;;;19.10;99.90;;;;;;5032612;28;20080;-80
2023/08/04 08:09:59;;;;;;;7.20;1.70;;;19.20;99.90;;;;;;5032556;28;20033;-81
2023/08/04 08:12:25;;;;;;;5.55;1.55;;;19.10;99.90;;;;;;5047905;28;20477;-82
2023/08/04 08:14:50;;;;;;;6.63;2.00;;;19.10;99.90;;;;;;5032835;28;20037;-82
2023/08/04 08:17:16;;;;;;;5.82;1.58;;;19.10;99.90;;;;;;5051376;28;20033;-83
2023/08/04 08:19:42;;;;;;;4.38;1.50;;;19.10;99.90;;;;;;5038750;28;20365;-83
2023/08/04 08:22:08;;;;;;;6.10;1.58;;;19.10;99.90;;;;;;5055401;28;20025;-82
2023/08/04 08:24:34;;;;;;;3.50;1.13;;;19.20;99.90;;;;;;5044394;28;20037;-83
2023/08/04 08:27:00;;;;;;;5.25;1.20;;;19.20;99.90;;;;;;5037048;28;20038;-80
2023/08/04 08:29:25;;;;;;;10.38;1.65;;;19.20;99.90;;;;;;5035981;28;20041;-81
2023/08/04 08:31:51;;;;;;;3.17;1.00;;;19.40;99.90;;;;;;5037619;28;20087;-80
2023/08/04 08:34:17;;;;;;;3.63;1.00;;;19.40;99.90;;;;;;5037617;28;20418;-84
2023/08/04 08:36:42;;;;;;;5.60;1.17;;;19.40;99.90;;;;;;5036792;28;20029;-85
2023/08/04 08:39:08;;;;;;;4.93;1.15;;;19.50;99.90;;;;;;5035192;28;20021;-87
2023/08/04 08:41:33;;;;;;;3.80;1.10;;;19.60;99.90;;;;;;5035532;28;20021;-86
2023/08/04 08:43:59;;;;;;;6.20;1.05;;;19.50;99.90;;;;;;5036120;28;20080;-84
2023/08/04 08:46:25;;;;;;;5.75;0.80;;;19.50;99.90;;;;;;5037026;28;20095;-85
2023/08/04 08:48:55;;;;;;;5.32;1.02;;;19.40;99.90;;;;;;5019352;28;20057;-83
2023/08/04 08:51:22;;;;;;;5.35;0.90;;;19.40;99.90;;;;;;5036330;28;20056;-83
2023/08/04 08:53:48;;;;;;;5.22;1.13;;;19.50;99.90;;;;;;5035227;28;20025;-83
2023/08/04 08:56:15;;;;;;;2.95;0.93;;;19.50;99.90;;;;;;5036162;28;20036;-83
2023/08/04 08:58:42;;;;;;;3.28;0.65;;;19.50;99.90;;;;;;5035896;28;20084;-83
2023/08/04 09:01:08;;;;;;;3.03;0.90;;;19.60;99.90;;;;;;5035879;28;20021;-84
2023/08/04 09:03:38;;;;;;;4.82;0.82;;;19.80;99.90;;;;;;5041570;28;20045;-86
2023/08/04 09:06:04;;;;;;;4.05;0.80;;;20.10;99.90;;;;;;5052829;28;20040;-85
2023/08/04 09:08:31;;;;;;;2.58;0.55;;;20.20;99.90;;;;;;5049782;28;20030;-86
2023/08/04 09:10:59;;;;;;;6.68;0.60;;;20.20;99.90;;;;;;5044366;28;20037;-85
2023/08/04 09:13:28;;;;;;;3.40;0.50;;;20.30;99.90;;;;;;5046980;28;20036;-83
2023/08/04 09:15:58;;;;;;;4.07;0.93;;;20.40;99.90;;;;;;5041286;28;20036;-85
2023/08/04 09:18:29;;;;;;;2.10;0.60;;;20.50;99.90;;;;;;5055472;28;20462;-80
2023/08/04 09:21:07;;;;;;;2.97;0.50;;;20.50;99.90;;;;;;5054635;28;20120;-87
2023/08/04 09:23:36;;;;;;;3.63;0.50;;;20.50;99.90;;;;;;5055655;28;20029;-81
2023/08/04 09:26:02;;;;;;;3.25;0.57;;;20.40;99.90;;;;;;5055026;28;20312;-86
2023/08/04 09:28:28;;;;;;;1.10;0.47;;;20.30;99.90;;;;;;5056216;28;20133;-86
2023/08/04 09:31:04;;;;;;;3.53;0.75;;;20.20;99.90;;;;;;5055954;28;20056;-86
2023/08/04 09:33:35;;;;;;;1.67;0.40;;;20.20;99.90;;;;;;5055892;28;20048;-86
2023/08/04 09:36:11;;;;;;;1.05;0.40;;;20.20;99.90;;;;;;5055791;28;20052;-87
2023/08/04 09:38:38;;;;;;;2.40;0.60;;;20.20;99.90;;;;;;5056352;28;20039;-86
2023/08/04 09:41:12;;;;;;;2.65;0.60;;;20.20;99.90;;;;;;5057451;28;20032;-86
2023/08/04 09:43:48;;;;;;;2.28;0.57;;;20.40;99.90;;;;;;5057234;28;20036;-87
2023/08/04 09:46:15;;;;;;;1.95;0.40;;;20.50;99.90;;;;;;5057436;28;20029;-87
2023/08/04 09:48:40;;;;;;;1.38;0.35;;;20.60;99.90;;;;;;5058042;28;20056;-85
2023/08/04 09:51:15;;;;;;;3.90;0.30;;;20.60;99.90;;;;;;5058282;28;20033;-87
2023/08/04 09:53:54;;;;;;;2.60;0.55;;;20.70;99.90;;;;;;5055257;28;20535;-87
2023/08/04 09:56:21;;;;;;;1.02;0.38;;;20.70;99.90;;;;;;5056744;28;20025;-87
2023/08/04 09:58:48;;;;;;;3.08;0.52;;;20.80;99.90;;;;;;5057572;28;20086;-85
2023/08/04 10:01:15;;;;;;;3.00;0.65;;;21.10;99.90;;;;;;5052669;28;20028;-86
2023/08/04 10:03:43;;;;;;;2.58;0.28;;;21.20;99.90;;;;;;5058375;28;20178;-86
2023/08/04 10:06:17;;;;;;;2.05;0.50;;;21.20;99.90;;;;;;5058224;28;20087;-86
2023/08/04 10:08:42;;;;;;;1.45;0.25;;;21.30;99.90;;;;;;5058539;28;20025;-87
2023/08/04 10:11:09;;;;;;;2.55;0.40;;;21.30;99.30;;;;;;5055628;28;20083;-86
2023/08/04 10:13:41;;;;;;;1.55;0.30;;;21.30;99.50;;;;;;5057218;28;20044;-86
2023/08/04 10:16:08;;;;;;;2.83;0.30;;;21.20;99.70;;;;;;5061028;28;20033;-86
2023/08/04 10:18:55;;;;;;;0.93;0.20;;;21.20;99.70;;;;;;5058695;28;20628;-87
2023/08/04 10:21:26;;;;;;;2.72;0.40;;;21.20;99.60;;;;;;5051412;28;20045;-81
2023/08/04 10:23:52;;;;;;;1.80;0.22;;;21.30;99.50;;;;;;5057043;28;20024;-87
2023/08/04 10:26:18;;;;;;;1.33;0.20;;;21.30;99.30;;;;;;5055624;28;20143;-85
2023/08/04 10:29:03;;;;;;;3.40;0.80;;;21.40;99.40;;;;;;5057189;28;20049;-87
2023/08/04 10:31:52;;;;;;;2.78;0.30;;;21.50;99.20;;;;;;5056438;28;20116;-87
2023/08/04 10:34:27;;;;;;;1.58;0.20;;;21.60;98.40;;;;;;5057239;28;20021;-86
2023/08/04 10:37:00;;;;;;;2.00;0.40;;;21.60;98.70;;;;;;5055378;28;20131;-86
2023/08/04 10:39:28;;;;;;;2.78;0.40;;;21.70;98.30;;;;;;5056465;28;20237;-86
2023/08/04 10:41:54;;;;;;;1.65;0.20;;;21.70;97.50;;;;;;5053809;28;20362;-85
2023/08/04 10:44:20;;;;;;;5.82;0.40;;;21.70;97.00;;;;;;5055865;28;20025;-87
2023/08/04 10:46:48;;;;;;;4.88;0.30;;;21.70;97.40;;;;;;5055298;28;20052;-86
2023/08/04 10:49:13;;;;;;;2.33;0.30;;;21.60;97.50;;;;;;5056231;28;20485;-86
2023/08/04 10:51:40;;;;;;;2.38;0.30;;;21.60;97.40;;;;;;5054651;28;20029;-83
2023/08/04 10:54:06;;;;;;;2.53;0.40;;;21.50;96.70;;;;;;5054925;28;20104;-86
2023/08/04 10:56:36;;;;;;;2.13;0.40;;;21.50;96.00;;;;;;5055535;28;20098;-84
2023/08/04 10:59:01;;;;;;;1.52;0.30;;;21.50;96.00;;;;;;5056054;28;20057;-85
2023/08/04 11:01:28;;;;;;;2.10;0.40;;;21.60;97.50;;;;;;5056858;28;20102;-87
2023/08/04 11:03:54;;;;;;;2.70;0.50;;;21.70;96.90;;;;;;5053430;28;20032;-83
2023/08/04 11:06:20;;;;;;;3.88;0.40;;;21.80;97.00;;;;;;5042644;28;20053;-87
2023/08/04 11:08:46;;;;;;;2.30;0.10;;;21.90;95.90;;;;;;5033128;28;20030;-87
2023/08/04 11:11:12;;;;;;;3.55;0.28;;;21.90;94.90;;;;;;5035661;28;20382;-86
2023/08/04 11:13:39;;;;;;;2.83;0.40;;;21.80;94.60;;;;;;5041174;28;20041;-88
2023/08/04 11:16:06;;;;;;;3.80;0.40;;;21.80;95.00;;;;;;5052521;28;20384;-84
2023/08/04 11:18:32;;;;;;;2.15;0.50;;;21.80;95.80;;;;;;5052228;28;20040;-87
2023/08/04 11:21:02;;;;;;;0.85;0.20;;;21.80;95.90;;;;;;5034943;28;20029;-87
2023/08/04 11:23:30;;;;;;;2.35;0.30;;;21.90;94.50;;;;;;5032730;28;20025;-84
2023/08/04 11:25:57;;;;;;;3.00;0.55;;;22.00;94.50;;;;;;5034757;28;20032;-85
2023/08/04 11:28:23;;;;;;;1.55;0.35;;;22.10;94.60;;;;;;5035336;28;20046;-85
2023/08/04 11:30:49;;;;;;;3.85;0.50;;;22.30;94.50;;;;;;5032909;28;20029;-70
2023/08/04 11:33:18;;;;;;;4.18;0.35;;;22.50;94.90;;;;;;5032553;28;20040;-69
2023/08/04 11:35:45;;;;;;;4.25;0.40;;;22.80;94.90;;;;;;5032415;28;20030;-69
2023/08/04 11:38:11;;;;;;;3.00;0.50;;;22.70;93.90;;;;;;5038373;28;20049;-71
2023/08/04 11:40:52;;;;;;;5.70;0.32;;;22.50;94.10;;;;;;5046816;28;20499;-69
2023/08/04 11:43:18;;;;;;;3.78;0.30;;;22.50;94.60;;;;;;5052286;28;20025;-69
2023/08/04 11:45:47;;;;;;;2.85;0.45;;;22.40;95.10;;;;;;5052695;28;20481;-70
2023/08/04 11:48:13;;;;;;;1.52;0.38;;;22.30;95.50;;;;;;5052164;28;20029;-69
2023/08/04 11:50:38;;;;;;;3.92;0.88;;;22.20;95.70;;;;;;5052513;28;20124;-69
2023/08/04 11:53:04;;;;;;;2.83;0.40;;;22.10;95.90;;;;;;5054826;28;20029;-70
2023/08/04 11:55:32;;;;;;;4.35;0.57;;;22.00;95.40;;;;;;5056638;28;20461;-69
2023/08/04 11:57:58;;;;;;;3.58;0.80;;;21.80;96.00;;;;;;5056352;28;20025;-71
2023/08/04 12:00:34;;;;;;;2.83;0.30;;;21.70;96.70;;;;;;5056356;28;20033;-71
2023/08/04 12:03:02;;;;;;;3.60;0.40;;;21.50;97.10;;;;;;5056526;28;20350;-71
2023/08/04 12:05:32;;;;;;;2.63;0.40;;;21.50;97.90;;;;;;5056185;28;20166;-71
2023/08/04 12:08:08;;;;;;;5.38;0.60;;;21.50;98.50;;;;;;5056241;28;20087;-71
2023/08/04 12:10:34;;;;;;;4.18;0.52;;;21.60;99.10;;;;;;5056295;28;20083;-72
2023/08/04 12:13:00;;;;;;;6.90;1.60;;;21.60;99.40;;;;;;5037845;28;20033;-69
2023/08/04 12:15:26;;;;;;;3.20;0.45;;;21.60;99.40;;;;;;5056023;28;20139;-69
2023/08/04 12:17:51;;;;;;;2.55;0.50;;;21.60;99.60;;;;;;5056421;28;20408;-69
2023/08/04 12:20:18;;;;;;;4.30;0.60;;;21.50;99.40;;;;;;5055977;28;20057;-69
2023/08/04 12:22:44;;;;;;;3.08;0.50;;;21.40;99.70;;;;;;5056179;28;20488;-68
2023/08/04 12:25:12;;;;;;;3.58;0.47;;;21.50;99.90;;;;;;5056086;28;20033;-69
2023/08/04 12:27:38;;;;;;;4.40;0.45;;;21.60;99.90;;;;;;5056138;28;20127;-71
2023/08/04 12:30:04;;;;;;;2.47;0.40;;;21.80;99.90;;;;;;5056450;28;20139;-71
2023/08/04 12:32:30;;;;;;;3.70;0.60;;;22.00;99.70;;;;;;5055816;28;20041;-69
2023/08/04 12:34:57;;;;;;;1.98;0.30;;;22.20;99.20;;;;;;5054863;28;20044;-69
2023/08/04 12:37:23;;;;;;;2.70;0.40;;;22.30;98.60;;;;;;5055721;28;20401;-69
2023/08/04 12:39:48;;;;;;;4.32;0.65;;;22.40;98.50;;;;;;5038216;28;20033;-69
2023/08/04 12:42:14;;;;;;;3.33;0.50;;;22.40;98.80;;;;;;5055599;28;20033;-80
2023/08/04 12:44:40;;;;;;;3.63;0.63;;;22.40;97.90;;;;;;5048882;28;20523;-83